Time;durP1;ratioP1;P1;durP2;ratioP2;P2;SDS_P1;SDS_P2;PMS_P1;PMS_P2;Temp;Humidity;BMP_temperature;BMP_pressure;BME280_temperature;BME280_humidity;BME280_pressure;Samples;Min_cycle;Max_cycle;Signal;HPM_P1;HPM_P2
2024/02/29 00:00:06;;;;;;;11.63;4.93;;;;;;;;;;343788;28;851;-84
2024/02/29 00:00:16;;;;;;;11.25;4.65;;;;;;;;;;345463;28;862;-82
2024/02/29 00:00:27;;;;;;;12.17;4.63;;;;;;;;;;344139;28;807;-82
2024/02/29 00:00:38;;;;;;;11.55;4.50;;;;;;;;;;343952;28;1004;-85
2024/02/29 00:00:48;;;;;;;9.95;4.20;;;;;;;;;;345371;28;925;-82
2024/02/29 00:00:59;;;;;;;10.83;4.20;;;;;;;;;;345207;28;1084;-86
2024/02/29 00:01:09;;;;;;;10.77;4.43;;;;;;;;;;344087;28;878;-82
2024/02/29 00:01:21;;;;;;;12.13;4.83;;;;;;;;;;345518;28;862;-85
2024/02/29 00:01:31;;;;;;;12.18;4.45;;;;;;;;;;344153;28;878;-82
2024/02/29 00:01:43;;;;;;;10.93;4.17;;;;;;;;;;343991;28;867;-85
2024/02/29 00:01:57;;;;;;;8.65;3.85;;;;;;;;;;345336;28;858;-84
2024/02/29 00:02:07;;;;;;;9.35;4.05;;;;;;;;;;345389;28;847;-85
2024/02/29 00:02:18;;;;;;;10.57;4.15;;;;;;;;;;346715;28;1185;-83
2024/02/29 00:02:28;;;;;;;10.77;4.47;;;;;;;;;;345375;28;883;-85
2024/02/29 00:02:39;;;;;;;10.82;4.15;;;;;;;;;;345309;28;870;-85
2024/02/29 00:02:50;;;;;;;10.60;4.13;;;;;;;;;;347977;28;902;-82
2024/02/29 00:03:00;;;;;;;11.17;4.60;;;;;;;;;;347875;28;1270;-82
2024/02/29 00:03:11;;;;;;;11.15;4.80;;;;;;;;;;348139;28;826;-85
2024/02/29 00:03:21;;;;;;;11.03;4.67;;;;;;;;;;345510;28;843;-85
2024/02/29 00:03:32;;;;;;;9.63;4.53;;;;;;;;;;345506;28;870;-82
2024/02/29 00:03:42;;;;;;;9.30;4.57;;;;;;;;;;343958;28;824;-84
2024/02/29 00:03:53;;;;;;;8.32;4.50;;;;;;;;;;344049;28;906;-85
2024/02/29 00:04:03;;;;;;;9.50;4.47;;;;;;;;;;345242;28;808;-85
2024/02/29 00:04:14;;;;;;;9.77;4.70;;;;;;;;;;344156;28;922;-84
2024/02/29 00:04:26;;;;;;;11.60;4.60;;;;;;;;;;341461;29;835;-85
2024/02/29 00:04:36;;;;;;;11.85;4.85;;;;;;;;;;341294;29;910;-83
2024/02/29 00:04:46;;;;;;;13.18;4.80;;;;;;;;;;342721;28;804;-83
2024/02/29 00:04:57;;;;;;;12.10;4.90;;;;;;;;;;342517;28;832;-84
2024/02/29 00:05:11;;;;;;;11.30;4.85;;;;;;;;;;343959;28;891;-85
2024/02/29 00:05:21;;;;;;;11.38;5.00;;;;;;;;;;344122;28;925;-85
2024/02/29 00:05:32;;;;;;;12.60;5.07;;;;;;;;;;345474;28;965;-82
2024/02/29 00:05:42;;;;;;;12.30;4.70;;;;;;;;;;345196;28;1179;-82
2024/02/29 00:05:54;;;;;;;12.25;4.97;;;;;;;;;;346806;28;951;-83
2024/02/29 00:06:04;;;;;;;12.98;5.18;;;;;;;;;;346283;28;835;-84
2024/02/29 00:06:15;;;;;;;12.27;5.10;;;;;;;;;;343970;28;926;-82
2024/02/29 00:06:25;;;;;;;10.85;4.93;;;;;;;;;;344148;28;966;-85
2024/02/29 00:06:36;;;;;;;10.03;4.67;;;;;;;;;;343985;28;791;-85
2024/02/29 00:06:46;;;;;;;10.10;4.40;;;;;;;;;;345397;28;788;-82
2024/02/29 00:06:57;;;;;;;10.00;4.20;;;;;;;;;;346508;28;811;-82
2024/02/29 00:07:08;;;;;;;10.30;4.50;;;;;;;;;;346762;28;819;-85
2024/02/29 00:07:19;;;;;;;9.80;4.55;;;;;;;;;;346845;28;897;-82
2024/02/29 00:07:31;;;;;;;9.80;4.63;;;;;;;;;;346881;28;866;-83
2024/02/29 00:07:42;;;;;;;10.85;4.63;;;;;;;;;;345200;28;1923;-85
2024/02/29 00:07:53;;;;;;;11.10;4.57;;;;;;;;;;344069;28;938;-85
2024/02/29 00:08:04;;;;;;;11.53;4.40;;;;;;;;;;343753;28;989;-82
2024/02/29 00:08:14;;;;;;;11.50;4.53;;;;;;;;;;343977;28;1294;-82
2024/02/29 00:08:26;;;;;;;11.20;4.73;;;;;;;;;;346738;28;1371;-85
2024/02/29 00:08:37;;;;;;;9.85;4.55;;;;;;;;;;345309;28;956;-83
2024/02/29 00:08:47;;;;;;;9.83;4.17;;;;;;;;;;345447;28;1140;-82
2024/02/29 00:08:58;;;;;;;12.73;4.28;;;;;;;;;;346439;28;914;-84
2024/02/29 00:09:08;;;;;;;11.97;4.57;;;;;;;;;;345312;28;1256;-85
2024/02/29 00:09:19;;;;;;;10.43;4.70;;;;;;;;;;344135;28;573;-85
2024/02/29 00:09:30;;;;;;;9.07;4.53;;;;;;;;;;345501;28;863;-81
2024/02/29 00:09:40;;;;;;;10.20;4.55;;;;;;;;;;345305;28;605;-82
2024/02/29 00:09:52;;;;;;;10.70;4.50;;;;;;;;;;345477;28;862;-85
2024/02/29 00:10:02;;;;;;;10.05;4.53;;;;;;;;;;345145;28;899;-85
2024/02/29 00:10:14;;;;;;;10.50;4.40;;;;;;;;;;345383;28;890;-86
2024/02/29 00:10:24;;;;;;;12.43;4.80;;;;;;;;;;346844;28;933;-85
2024/02/29 00:10:35;;;;;;;13.90;4.60;;;;;;;;;;346761;28;807;-84
2024/02/29 00:10:45;;;;;;;13.57;4.63;;;;;;;;;;345415;28;843;-81
2024/02/29 00:10:56;;;;;;;11.43;4.68;;;;;;;;;;346788;28;859;-84
2024/02/29 00:11:06;;;;;;;10.37;4.80;;;;;;;;;;345039;28;1014;-85
2024/02/29 00:11:17;;;;;;;9.57;4.55;;;;;;;;;;344053;28;1231;-82
2024/02/29 00:11:28;;;;;;;10.65;4.30;;;;;;;;;;344028;28;1260;-85
2024/02/29 00:11:38;;;;;;;10.27;4.17;;;;;;;;;;345099;28;1970;-82
2024/02/29 00:11:51;;;;;;;10.50;4.38;;;;;;;;;;345389;28;1479;-86
2024/02/29 00:12:04;;;;;;;11.23;4.55;;;;;;;;;;345156;28;975;-82
2024/02/29 00:12:15;;;;;;;12.25;4.45;;;;;;;;;;342752;28;862;-81
2024/02/29 00:12:25;;;;;;;15.05;4.60;;;;;;;;;;346685;28;859;-84
2024/02/29 00:12:36;;;;;;;15.40;4.53;;;;;;;;;;345172;28;1254;-82
2024/02/29 00:12:46;;;;;;;13.52;4.25;;;;;;;;;;345370;28;1362;-85
2024/02/29 00:12:57;;;;;;;10.13;3.90;;;;;;;;;;342646;28;1144;-83
2024/02/29 00:13:09;;;;;;;10.18;3.97;;;;;;;;;;346534;28;909;-81
2024/02/29 00:13:20;;;;;;;10.80;4.63;;;;;;;;;;346875;28;874;-85
2024/02/29 00:13:30;;;;;;;10.90;4.60;;;;;;;;;;344963;28;1404;-83
2024/02/29 00:13:41;;;;;;;10.77;4.70;;;;;;;;;;342488;28;1456;-82
2024/02/29 00:13:52;;;;;;;11.98;4.85;;;;;;;;;;345231;28;1509;-83
2024/02/29 00:14:03;;;;;;;11.75;4.95;;;;;;;;;;345023;28;1354;-85
2024/02/29 00:14:13;;;;;;;12.60;4.90;;;;;;;;;;343898;28;1260;-82
2024/02/29 00:14:24;;;;;;;11.10;4.73;;;;;;;;;;342787;28;828;-85
2024/02/29 00:14:37;;;;;;;11.90;5.18;;;;;;;;;;345262;28;1291;-82
2024/02/29 00:14:47;;;;;;;11.88;5.07;;;;;;;;;;345404;28;934;-81
2024/02/29 00:14:57;;;;;;;11.57;4.70;;;;;;;;;;344068;28;1176;-81
2024/02/29 00:15:08;;;;;;;11.35;4.55;;;;;;;;;;342338;28;1397;-82
2024/02/29 00:15:19;;;;;;;10.63;4.33;;;;;;;;;;342806;28;847;-85
2024/02/29 00:15:29;;;;;;;12.82;4.30;;;;;;;;;;345422;28;859;-81
2024/02/29 00:15:40;;;;;;;12.63;4.30;;;;;;;;;;343991;28;878;-82
2024/02/29 00:15:51;;;;;;;11.02;4.68;;;;;;;;;;343984;28;1262;-86
2024/02/29 00:16:02;;;;;;;9.43;4.37;;;;;;;;;;342436;28;800;-82
2024/02/29 00:16:13;;;;;;;8.38;4.35;;;;;;;;;;342714;28;896;-82
2024/02/29 00:16:23;;;;;;;9.57;4.28;;;;;;;;;;342656;28;1276;-82
2024/02/29 00:16:34;;;;;;;11.20;4.47;;;;;;;;;;345228;28;1295;-82
2024/02/29 00:16:45;;;;;;;11.13;4.25;;;;;;;;;;345475;28;862;-85
2024/02/29 00:16:57;;;;;;;9.80;4.03;;;;;;;;;;345295;28;1241;-81
2024/02/29 00:17:07;;;;;;;10.08;3.84;;;;;;;;;;343694;28;851;-85
2024/02/29 00:17:18;;;;;;;11.07;3.80;;;;;;;;;;346808;28;926;-82
2024/02/29 00:17:28;;;;;;;10.60;3.97;;;;;;;;;;342668;28;1315;-84
2024/02/29 00:17:39;;;;;;;11.00;3.90;;;;;;;;;;343832;28;1420;-82
2024/02/29 00:17:49;;;;;;;10.37;3.83;;;;;;;;;;344111;28;843;-82
2024/02/29 00:18:00;;;;;;;9.98;3.60;;;;;;;;;;346735;28;1452;-83
2024/02/29 00:18:10;;;;;;;9.53;3.60;;;;;;;;;;342361;28;1350;-83
2024/02/29 00:18:20;;;;;;;9.48;3.70;;;;;;;;;;345503;28;886;-83
2024/02/29 00:18:31;;;;;;;10.33;3.80;;;;;;;;;;342635;28;1397;-82
2024/02/29 00:18:43;;;;;;;8.98;3.75;;;;;;;;;;346542;28;1188;-85
2024/02/29 00:18:53;;;;;;;10.90;4.35;;;;;;;;;;344062;28;882;-82
2024/02/29 00:19:04;;;;;;;10.67;4.80;;;;;;;;;;344940;28;1239;-83
2024/02/29 00:19:14;;;;;;;13.03;4.93;;;;;;;;;;345431;28;811;-83
2024/02/29 00:19:25;;;;;;;12.67;4.80;;;;;;;;;;344054;28;1256;-85
2024/02/29 00:19:35;;;;;;;12.25;4.97;;;;;;;;;;342602;28;851;-85
2024/02/29 00:19:46;;;;;;;11.20;4.80;;;;;;;;;;345357;28;1141;-82
2024/02/29 00:19:56;;;;;;;9.88;4.57;;;;;;;;;;343959;28;1181;-84
2024/02/29 00:20:08;;;;;;;10.70;4.23;;;;;;;;;;342308;28;1406;-83
2024/02/29 00:20:19;;;;;;;10.45;3.97;;;;;;;;;;345287;28;1384;-86
2024/02/29 00:20:29;;;;;;;10.60;4.03;;;;;;;;;;345403;28;843;-82
2024/02/29 00:20:41;;;;;;;10.23;3.90;;;;;;;;;;343831;28;1340;-85
2024/02/29 00:20:51;;;;;;;9.60;3.95;;;;;;;;;;345154;28;1251;-82
2024/02/29 00:21:02;;;;;;;8.25;3.80;;;;;;;;;;347677;28;1303;-83
2024/02/29 00:21:13;;;;;;;8.67;3.90;;;;;;;;;;345194;28;1352;-85
2024/02/29 00:21:23;;;;;;;9.20;3.90;;;;;;;;;;344079;28;1167;-85
2024/02/29 00:21:34;;;;;;;10.57;4.00;;;;;;;;;;344048;28;890;-82
2024/02/29 00:21:45;;;;;;;10.40;4.50;;;;;;;;;;346749;28;1281;-82
2024/02/29 00:21:55;;;;;;;10.40;4.63;;;;;;;;;;344132;28;878;-82
2024/02/29 00:22:06;;;;;;;9.38;4.57;;;;;;;;;;343788;28;1009;-84
2024/02/29 00:22:16;;;;;;;7.87;4.10;;;;;;;;;;342586;28;1224;-85
2024/02/29 00:22:26;;;;;;;8.52;4.47;;;;;;;;;;342571;28;1332;-81
2024/02/29 00:22:38;;;;;;;10.53;4.60;;;;;;;;;;342522;28;1272;-85
2024/02/29 00:22:48;;;;;;;11.68;4.95;;;;;;;;;;341335;29;1359;-85
2024/02/29 00:22:59;;;;;;;12.02;5.00;;;;;;;;;;344096;28;887;-81
2024/02/29 00:23:09;;;;;;;9.50;4.83;;;;;;;;;;343680;28;1157;-84
2024/02/29 00:23:19;;;;;;;11.40;4.90;;;;;;;;;;343982;28;1312;-85
2024/02/29 00:23:30;;;;;;;10.23;4.53;;;;;;;;;;342597;28;1373;-84
2024/02/29 00:23:41;;;;;;;12.07;4.60;;;;;;;;;;345275;28;1550;-85
2024/02/29 00:23:51;;;;;;;12.52;4.40;;;;;;;;;;346763;28;1461;-85
2024/02/29 00:24:02;;;;;;;13.40;4.33;;;;;;;;;;343949;28;1342;-85
2024/02/29 00:24:12;;;;;;;11.27;4.20;;;;;;;;;;342250;28;1369;-82
2024/02/29 00:24:23;;;;;;;11.27;4.50;;;;;;;;;;342814;28;859;-82
2024/02/29 00:24:33;;;;;;;12.07;4.78;;;;;;;;;;342561;28;851;-84
2024/02/29 00:24:44;;;;;;;12.30;4.73;;;;;;;;;;342706;28;930;-82
2024/02/29 00:24:55;;;;;;;10.07;4.68;;;;;;;;;;342760;28;959;-85
2024/02/29 00:25:06;;;;;;;10.55;4.70;;;;;;;;;;342410;28;886;-82
2024/02/29 00:25:16;;;;;;;11.10;4.65;;;;;;;;;;341329;29;911;-85
2024/02/29 00:25:27;;;;;;;12.07;4.60;;;;;;;;;;341427;29;852;-83
2024/02/29 00:25:37;;;;;;;10.53;4.40;;;;;;;;;;341275;29;942;-85
2024/02/29 00:25:48;;;;;;;10.17;4.40;;;;;;;;;;341437;29;938;-85
2024/02/29 00:25:58;;;;;;;9.77;4.32;;;;;;;;;;340091;29;781;-83
2024/02/29 00:26:09;;;;;;;9.77;4.70;;;;;;;;;;339770;29;720;-85
2024/02/29 00:26:19;;;;;;;10.27;4.70;;;;;;;;;;339922;29;978;-83
2024/02/29 00:26:30;;;;;;;10.03;4.37;;;;;;;;;;339924;29;939;-82
2024/02/29 00:26:40;;;;;;;10.02;4.15;;;;;;;;;;339977;29;808;-85
2024/02/29 00:26:51;;;;;;;8.73;4.30;;;;;;;;;;340024;29;864;-83
2024/02/29 00:27:01;;;;;;;8.03;4.40;;;;;;;;;;340015;29;852;-82
2024/02/29 00:27:12;;;;;;;7.38;4.22;;;;;;;;;;341005;29;1292;-83
2024/02/29 00:27:24;;;;;;;8.07;4.10;;;;;;;;;;343974;28;761;-85
2024/02/29 00:27:34;;;;;;;9.27;4.38;;;;;;;;;;342628;28;863;-84
2024/02/29 00:27:45;;;;;;;9.88;4.85;;;;;;;;;;344156;28;895;-82
2024/02/29 00:27:56;;;;;;;9.93;5.23;;;;;;;;;;342660;28;1260;-85
2024/02/29 00:28:07;;;;;;;9.00;4.93;;;;;;;;;;341078;29;923;-86
2024/02/29 00:28:17;;;;;;;10.83;5.00;;;;;;;;;;341062;29;927;-82
2024/02/29 00:28:28;;;;;;;10.90;4.72;;;;;;;;;;341319;29;891;-82
2024/02/29 00:28:38;;;;;;;11.13;4.87;;;;;;;;;;341320;29;892;-82
2024/02/29 00:28:48;;;;;;;10.85;4.80;;;;;;;;;;342807;28;962;-85
2024/02/29 00:29:01;;;;;;;10.20;4.63;;;;;;;;;;342793;28;931;-86
2024/02/29 00:29:11;;;;;;;10.20;4.55;;;;;;;;;;345009;28;941;-84
2024/02/29 00:29:26;;;;;;;8.98;4.50;;;;;;;;;;343907;28;1036;-86
2024/02/29 00:29:38;;;;;;;10.40;5.00;;;;;;;;;;345340;28;863;-85
2024/02/29 00:29:48;;;;;;;11.23;5.25;;;;;;;;;;344006;28;940;-81
2024/02/29 00:29:59;;;;;;;10.53;4.90;;;;;;;;;;345496;28;918;-86
2024/02/29 00:30:10;;;;;;;9.75;4.65;;;;;;;;;;342368;28;828;-82
2024/02/29 00:30:20;;;;;;;8.73;4.13;;;;;;;;;;342725;28;883;-82
2024/02/29 00:30:31;;;;;;;8.33;3.90;;;;;;;;;;346636;28;843;-82
2024/02/29 00:30:42;;;;;;;9.48;4.03;;;;;;;;;;346684;28;1102;-82
2024/02/29 00:30:52;;;;;;;10.70;4.13;;;;;;;;;;346739;28;867;-85
2024/02/29 00:31:03;;;;;;;11.80;4.07;;;;;;;;;;345322;28;1222;-82
2024/02/29 00:31:14;;;;;;;11.53;3.57;;;;;;;;;;345121;28;832;-86
2024/02/29 00:31:27;;;;;;;9.15;3.72;;;;;;;;;;345227;28;1400;-85
2024/02/29 00:31:42;;;;;;;6.82;3.40;;;;;;;;;;342453;28;1922;-86
2024/02/29 00:31:52;;;;;;;6.80;3.10;;;;;;;;;;344044;28;1452;-86
2024/02/29 00:32:03;;;;;;;8.07;3.60;;;;;;;;;;345278;28;1264;-86
2024/02/29 00:32:13;;;;;;;8.05;3.88;;;;;;;;;;345059;28;1433;-85
2024/02/29 00:32:24;;;;;;;8.45;4.00;;;;;;;;;;342584;28;844;-86
2024/02/29 00:32:35;;;;;;;7.53;3.77;;;;;;;;;;342715;28;859;-85
2024/02/29 00:32:46;;;;;;;6.78;3.53;;;;;;;;;;344088;28;808;-82
2024/02/29 00:32:57;;;;;;;7.00;3.30;;;;;;;;;;344086;28;898;-82
2024/02/29 00:33:08;;;;;;;7.30;3.47;;;;;;;;;;343649;28;1271;-85
2024/02/29 00:33:18;;;;;;;6.57;3.37;;;;;;;;;;345309;28;1192;-82
2024/02/29 00:33:29;;;;;;;6.35;3.22;;;;;;;;;;343867;28;1185;-83
2024/02/29 00:33:40;;;;;;;7.77;3.10;;;;;;;;;;342567;28;1292;-85
2024/02/29 00:33:51;;;;;;;9.02;3.22;;;;;;;;;;343992;28;1168;-85
2024/02/29 00:34:01;;;;;;;9.13;3.42;;;;;;;;;;345232;28;1408;-82
2024/02/29 00:34:12;;;;;;;7.35;3.58;;;;;;;;;;345061;28;1272;-82
2024/02/29 00:34:22;;;;;;;7.00;3.77;;;;;;;;;;346822;28;906;-82
2024/02/29 00:34:33;;;;;;;7.45;3.95;;;;;;;;;;343787;28;1344;-82
2024/02/29 00:34:43;;;;;;;8.20;3.97;;;;;;;;;;342578;28;1165;-85
2024/02/29 00:34:54;;;;;;;7.95;3.90;;;;;;;;;;342678;28;1334;-86
2024/02/29 00:35:04;;;;;;;7.80;3.57;;;;;;;;;;343942;28;1362;-83
2024/02/29 00:35:15;;;;;;;7.43;3.50;;;;;;;;;;343761;28;1189;-85
2024/02/29 00:35:25;;;;;;;8.70;3.53;;;;;;;;;;341188;29;1194;-83
2024/02/29 00:35:36;;;;;;;8.77;3.50;;;;;;;;;;341283;29;829;-81
2024/02/29 00:35:46;;;;;;;8.73;3.55;;;;;;;;;;342405;28;895;-82
2024/02/29 00:35:57;;;;;;;8.37;3.70;;;;;;;;;;343970;28;1235;-85
2024/02/29 00:36:08;;;;;;;7.22;3.47;;;;;;;;;;343942;28;1542;-85
2024/02/29 00:36:19;;;;;;;8.00;3.47;;;;;;;;;;345323;28;1282;-83
2024/02/29 00:36:29;;;;;;;7.68;3.60;;;;;;;;;;345315;28;894;-81
2024/02/29 00:36:40;;;;;;;9.70;4.80;;;;;;;;;;346737;28;890;-85
2024/02/29 00:36:50;;;;;;;9.30;4.65;;;;;;;;;;346847;28;808;-85
2024/02/29 00:37:00;;;;;;;9.00;4.20;;;;;;;;;;343972;28;1552;-85
2024/02/29 00:37:11;;;;;;;8.70;3.80;;;;;;;;;;343693;28;883;-81
2024/02/29 00:37:21;;;;;;;8.97;3.70;;;;;;;;;;342648;28;1296;-81
2024/02/29 00:37:32;;;;;;;9.27;3.67;;;;;;;;;;346548;28;1170;-85
2024/02/29 00:37:42;;;;;;;8.70;3.33;;;;;;;;;;347972;28;1241;-81
2024/02/29 00:37:53;;;;;;;8.53;3.33;;;;;;;;;;346783;28;863;-85
2024/02/29 00:38:03;;;;;;;8.30;3.33;;;;;;;;;;346789;28;952;-85
2024/02/29 00:38:14;;;;;;;8.52;3.20;;;;;;;;;;345109;28;899;-85
2024/02/29 00:38:25;;;;;;;8.50;3.27;;;;;;;;;;345389;28;788;-82
2024/02/29 00:38:36;;;;;;;8.10;3.35;;;;;;;;;;343933;28;860;-84
2024/02/29 00:38:47;;;;;;;7.58;3.68;;;;;;;;;;345365;28;1362;-81
2024/02/29 00:38:57;;;;;;;8.50;3.90;;;;;;;;;;345367;28;1129;-81
2024/02/29 00:39:08;;;;;;;8.35;3.80;;;;;;;;;;345382;28;903;-85
2024/02/29 00:39:18;;;;;;;8.73;3.63;;;;;;;;;;343730;28;1364;-81
2024/02/29 00:39:29;;;;;;;8.48;3.63;;;;;;;;;;346702;28;1581;-83
2024/02/29 00:39:39;;;;;;;9.33;3.70;;;;;;;;;;343906;28;1407;-85
2024/02/29 00:39:50;;;;;;;9.73;3.85;;;;;;;;;;344004;28;1350;-85
2024/02/29 00:40:00;;;;;;;8.87;3.47;;;;;;;;;;344139;28;812;-81
2024/02/29 00:40:11;;;;;;;8.25;3.88;;;;;;;;;;342377;28;812;-82
2024/02/29 00:40:21;;;;;;;8.82;3.92;;;;;;;;;;341204;29;1296;-81
2024/02/29 00:40:32;;;;;;;8.27;3.97;;;;;;;;;;342578;28;1146;-83
2024/02/29 00:40:43;;;;;;;9.23;4.10;;;;;;;;;;343989;28;851;-85
2024/02/29 00:40:53;;;;;;;8.97;4.10;;;;;;;;;;344005;28;1399;-85
2024/02/29 00:41:04;;;;;;;10.70;4.03;;;;;;;;;;343969;28;1196;-86
2024/02/29 00:41:14;;;;;;;9.40;4.10;;;;;;;;;;343796;28;975;-82
2024/02/29 00:41:25;;;;;;;9.73;4.47;;;;;;;;;;344025;28;875;-82
2024/02/29 00:41:36;;;;;;;8.68;4.75;;;;;;;;;;345299;28;982;-85
2024/02/29 00:41:47;;;;;;;9.63;4.50;;;;;;;;;;342903;28;1202;-81
2024/02/29 00:41:57;;;;;;;9.15;4.28;;;;;;;;;;345707;28;904;-81
2024/02/29 00:42:08;;;;;;;9.37;4.20;;;;;;;;;;344258;28;891;-85
2024/02/29 00:42:18;;;;;;;10.30;4.18;;;;;;;;;;344036;28;827;-84
2024/02/29 00:42:29;;;;;;;11.00;4.03;;;;;;;;;;344337;28;894;-85
2024/02/29 00:42:40;;;;;;;11.05;3.97;;;;;;;;;;342763;28;1479;-86
2024/02/29 00:42:50;;;;;;;11.43;3.90;;;;;;;;;;343021;28;828;-81
2024/02/29 00:43:01;;;;;;;11.80;4.10;;;;;;;;;;342879;28;824;-84
2024/02/29 00:43:11;;;;;;;10.13;4.00;;;;;;;;;;342498;28;824;-82
2024/02/29 00:43:22;;;;;;;8.87;3.90;;;;;;;;;;342891;28;844;-82
2024/02/29 00:43:32;;;;;;;8.10;3.80;;;;;;;;;;343041;28;871;-82
2024/02/29 00:43:43;;;;;;;8.60;3.83;;;;;;;;;;342883;28;863;-85
2024/02/29 00:43:53;;;;;;;10.25;4.03;;;;;;;;;;344341;28;886;-85
2024/02/29 00:44:04;;;;;;;10.02;4.03;;;;;;;;;;344363;28;867;-83
2024/02/29 00:44:14;;;;;;;9.73;3.77;;;;;;;;;;341227;28;844;-82
2024/02/29 00:44:25;;;;;;;8.93;3.60;;;;;;;;;;342840;28;914;-82
2024/02/29 00:44:35;;;;;;;9.47;3.67;;;;;;;;;;341597;29;859;-85
2024/02/29 00:44:46;;;;;;;8.45;3.53;;;;;;;;;;341558;29;1511;-81
2024/02/29 00:44:56;;;;;;;8.40;3.43;;;;;;;;;;340249;29;1246;-82
2024/02/29 00:45:07;;;;;;;8.13;3.20;;;;;;;;;;342806;28;1312;-84
2024/02/29 00:45:18;;;;;;;7.68;3.00;;;;;;;;;;343934;28;1161;-85
2024/02/29 00:45:28;;;;;;;7.13;3.10;;;;;;;;;;342825;28;1359;-82
2024/02/29 00:45:38;;;;;;;8.32;3.58;;;;;;;;;;345408;28;1210;-82
2024/02/29 00:45:49;;;;;;;10.10;3.97;;;;;;;;;;344303;28;1364;-81
2024/02/29 00:46:00;;;;;;;10.07;3.90;;;;;;;;;;344375;28;828;-82
2024/02/29 00:46:10;;;;;;;9.37;3.57;;;;;;;;;;344178;28;1170;-85
2024/02/29 00:46:23;;;;;;;7.72;3.30;;;;;;;;;;345154;28;1257;-82
2024/02/29 00:46:33;;;;;;;8.32;3.33;;;;;;;;;;347078;28;859;-85
2024/02/29 00:46:44;;;;;;;8.45;3.30;;;;;;;;;;342757;28;1193;-81
2024/02/29 00:46:54;;;;;;;9.23;3.57;;;;;;;;;;345631;28;1272;-85
2024/02/29 00:47:05;;;;;;;8.50;3.53;;;;;;;;;;342911;28;1544;-81
2024/02/29 00:47:15;;;;;;;8.90;3.63;;;;;;;;;;342559;28;1164;-82
2024/02/29 00:47:26;;;;;;;10.43;3.57;;;;;;;;;;344299;28;879;-82
2024/02/29 00:47:36;;;;;;;10.43;3.60;;;;;;;;;;344149;28;1580;-85
2024/02/29 00:47:46;;;;;;;10.50;3.50;;;;;;;;;;344179;28;1556;-82
2024/02/29 00:47:57;;;;;;;7.63;3.13;;;;;;;;;;343017;28;816;-85
2024/02/29 00:48:07;;;;;;;7.15;3.00;;;;;;;;;;344117;28;1417;-82
2024/02/29 00:48:18;;;;;;;7.70;3.13;;;;;;;;;;343923;28;1378;-85
2024/02/29 00:48:28;;;;;;;9.02;3.25;;;;;;;;;;344177;28;1176;-80
2024/02/29 00:48:39;;;;;;;10.93;3.60;;;;;;;;;;342840;28;1481;-86
2024/02/29 00:48:49;;;;;;;9.77;3.55;;;;;;;;;;345544;28;1388;-85
2024/02/29 00:49:00;;;;;;;9.23;3.67;;;;;;;;;;344298;28;816;-82
2024/02/29 00:49:11;;;;;;;7.65;3.45;;;;;;;;;;344226;28;911;-85
2024/02/29 00:49:22;;;;;;;8.00;3.75;;;;;;;;;;342609;28;1662;-85
2024/02/29 00:49:34;;;;;;;7.68;4.03;;;;;;;;;;344250;28;1311;-85
2024/02/29 00:49:45;;;;;;;9.57;4.05;;;;;;;;;;346894;28;1216;-82
2024/02/29 00:49:55;;;;;;;9.53;3.80;;;;;;;;;;346965;28;1173;-82
2024/02/29 00:50:07;;;;;;;10.77;3.75;;;;;;;;;;344275;28;820;-85
2024/02/29 00:50:17;;;;;;;10.45;3.90;;;;;;;;;;342544;28;1362;-83
2024/02/29 00:50:28;;;;;;;9.45;3.50;;;;;;;;;;346664;28;1182;-84
2024/02/29 00:50:38;;;;;;;7.50;3.03;;;;;;;;;;345398;28;843;-82
2024/02/29 00:50:48;;;;;;;8.90;3.00;;;;;;;;;;344161;28;1137;-81
2024/02/29 00:50:59;;;;;;;8.38;3.20;;;;;;;;;;347086;28;941;-86
2024/02/29 00:51:09;;;;;;;8.80;3.70;;;;;;;;;;345528;28;1334;-81
2024/02/29 00:51:20;;;;;;;9.20;3.85;;;;;;;;;;343853;28;1291;-82
2024/02/29 00:51:31;;;;;;;11.23;3.93;;;;;;;;;;344394;28;1022;-81
2024/02/29 00:51:41;;;;;;;11.50;3.97;;;;;;;;;;345534;28;1918;-82
2024/02/29 00:51:52;;;;;;;11.05;3.80;;;;;;;;;;345624;28;878;-81
2024/02/29 00:52:03;;;;;;;9.45;3.63;;;;;;;;;;345699;28;894;-85
2024/02/29 00:52:13;;;;;;;9.03;3.17;;;;;;;;;;345615;28;840;-81
2024/02/29 00:52:24;;;;;;;8.85;3.10;;;;;;;;;;342735;28;1021;-81
2024/02/29 00:52:34;;;;;;;9.90;3.20;;;;;;;;;;343041;28;1129;-83
2024/02/29 00:52:44;;;;;;;10.68;3.20;;;;;;;;;;342918;28;797;-82
2024/02/29 00:52:55;;;;;;;11.60;3.13;;;;;;;;;;342935;28;812;-81
2024/02/29 00:53:05;;;;;;;10.77;3.20;;;;;;;;;;341535;28;1201;-83
2024/02/29 00:53:16;;;;;;;10.23;3.27;;;;;;;;;;341296;28;863;-81
2024/02/29 00:53:26;;;;;;;8.73;3.40;;;;;;;;;;344372;28;875;-85
2024/02/29 00:53:37;;;;;;;8.37;3.40;;;;;;;;;;344258;28;823;-85
2024/02/29 00:53:47;;;;;;;8.45;3.47;;;;;;;;;;344234;28;1481;-83
2024/02/29 00:53:58;;;;;;;9.47;3.60;;;;;;;;;;345585;28;1345;-85
2024/02/29 00:54:08;;;;;;;9.18;3.70;;;;;;;;;;344137;28;1315;-83
2024/02/29 00:54:19;;;;;;;8.17;3.93;;;;;;;;;;341174;29;1145;-82
2024/02/29 00:54:29;;;;;;;8.10;4.00;;;;;;;;;;342874;28;1235;-81
2024/02/29 00:54:40;;;;;;;8.67;4.17;;;;;;;;;;344045;28;1296;-82
2024/02/29 00:54:51;;;;;;;8.95;4.03;;;;;;;;;;344265;28;574;-85
2024/02/29 00:55:03;;;;;;;8.88;3.70;;;;;;;;;;343009;28;958;-85
2024/02/29 00:55:13;;;;;;;10.25;3.50;;;;;;;;;;342887;28;942;-81
2024/02/29 00:55:24;;;;;;;9.73;3.40;;;;;;;;;;345286;28;1523;-85
2024/02/29 00:55:34;;;;;;;8.67;3.43;;;;;;;;;;344260;28;1376;-84
2024/02/29 00:55:45;;;;;;;8.52;3.40;;;;;;;;;;342796;28;1277;-81
2024/02/29 00:55:55;;;;;;;10.20;3.30;;;;;;;;;;344086;28;1145;-82
2024/02/29 00:56:06;;;;;;;10.98;3.30;;;;;;;;;;344239;28;876;-84
2024/02/29 00:56:17;;;;;;;9.90;3.17;;;;;;;;;;344250;28;831;-82
2024/02/29 00:56:28;;;;;;;9.60;3.22;;;;;;;;;;345509;28;1301;-85
2024/02/29 00:56:38;;;;;;;9.68;3.50;;;;;;;;;;344198;28;843;-86
2024/02/29 00:56:48;;;;;;;10.97;3.70;;;;;;;;;;347014;28;877;-81
2024/02/29 00:56:59;;;;;;;9.98;3.45;;;;;;;;;;344202;28;803;-81
2024/02/29 00:57:09;;;;;;;9.60;3.33;;;;;;;;;;344191;28;895;-82
2024/02/29 00:57:20;;;;;;;10.30;3.40;;;;;;;;;;345277;28;938;-85
2024/02/29 00:57:30;;;;;;;9.00;3.23;;;;;;;;;;344371;28;879;-84
2024/02/29 00:57:41;;;;;;;8.95;3.13;;;;;;;;;;345617;28;923;-85
2024/02/29 00:57:51;;;;;;;8.33;3.23;;;;;;;;;;344135;28;828;-81
2024/02/29 00:58:02;;;;;;;9.27;3.53;;;;;;;;;;344094;28;812;-81
2024/02/29 00:58:12;;;;;;;10.23;3.60;;;;;;;;;;342760;28;1150;-82
2024/02/29 00:58:23;;;;;;;9.95;3.45;;;;;;;;;;344025;28;887;-85
2024/02/29 00:58:34;;;;;;;10.13;3.50;;;;;;;;;;342702;28;1244;-83
2024/02/29 00:58:44;;;;;;;9.63;3.73;;;;;;;;;;341376;29;876;-82
2024/02/29 00:58:54;;;;;;;8.73;3.85;;;;;;;;;;342911;28;1283;-81
2024/02/29 00:59:05;;;;;;;11.87;4.07;;;;;;;;;;344136;28;1168;-82
2024/02/29 00:59:15;;;;;;;11.95;3.85;;;;;;;;;;342695;28;1311;-81
2024/02/29 00:59:26;;;;;;;13.13;3.63;;;;;;;;;;345347;28;1381;-82
2024/02/29 00:59:36;;;;;;;10.13;3.22;;;;;;;;;;345500;28;875;-85
2024/02/29 00:59:47;;;;;;;11.93;3.30;;;;;;;;;;345658;28;808;-84
2024/02/29 00:59:57;;;;;;;10.90;3.50;;;;;;;;;;344167;28;1228;-82
2024/02/29 01:00:10;;;;;;;10.53;3.40;;;;;;;;;;345546;28;843;-83
2024/02/29 01:00:22;;;;;;;8.13;3.17;;;;;;;;;;342627;28;853;-83
2024/02/29 01:00:32;;;;;;;7.70;3.10;;;;;;;;;;345475;28;1232;-86
2024/02/29 01:00:42;;;;;;;9.90;3.37;;;;;;;;;;342818;28;1026;-81
2024/02/29 01:00:54;;;;;;;10.32;3.67;;;;;;;;;;342902;28;1285;-85
2024/02/29 01:01:04;;;;;;;10.43;3.78;;;;;;;;;;342900;28;848;-85
2024/02/29 01:01:15;;;;;;;8.18;3.53;;;;;;;;;;342765;28;860;-83
2024/02/29 01:01:25;;;;;;;8.93;3.47;;;;;;;;;;344086;28;859;-84
2024/02/29 01:01:36;;;;;;;9.57;3.50;;;;;;;;;;344192;28;878;-85
2024/02/29 01:01:46;;;;;;;10.40;3.50;;;;;;;;;;342820;28;1336;-81
2024/02/29 01:01:57;;;;;;;9.70;3.45;;;;;;;;;;344327;28;820;-83
2024/02/29 01:02:07;;;;;;;8.60;3.20;;;;;;;;;;345308;28;1498;-81
2024/02/29 01:02:18;;;;;;;7.15;3.13;;;;;;;;;;346974;28;875;-85
2024/02/29 01:02:28;;;;;;;6.93;3.23;;;;;;;;;;342670;28;1444;-83
2024/02/29 01:02:39;;;;;;;8.50;3.47;;;;;;;;;;342930;28;847;-85
2024/02/29 01:02:49;;;;;;;9.70;3.30;;;;;;;;;;344327;28;780;-81
2024/02/29 01:03:00;;;;;;;10.35;2.80;;;;;;;;;;345640;28;938;-83
2024/02/29 01:03:11;;;;;;;9.32;3.13;;;;;;;;;;346846;28;1303;-84
2024/02/29 01:03:21;;;;;;;8.97;3.23;;;;;;;;;;344022;28;1041;-85
2024/02/29 01:03:32;;;;;;;8.45;3.40;;;;;;;;;;345616;28;930;-85
2024/02/29 01:03:42;;;;;;;8.60;3.10;;;;;;;;;;346970;28;870;-85
2024/02/29 01:03:52;;;;;;;8.60;3.38;;;;;;;;;;344255;28;1238;-82
2024/02/29 01:04:03;;;;;;;8.90;3.53;;;;;;;;;;344251;28;784;-82
2024/02/29 01:04:14;;;;;;;9.57;3.60;;;;;;;;;;342805;28;962;-82
2024/02/29 01:04:25;;;;;;;8.75;3.45;;;;;;;;;;344096;28;827;-85
2024/02/29 01:04:35;;;;;;;8.90;3.22;;;;;;;;;;342840;28;790;-84
2024/02/29 01:04:46;;;;;;;9.27;3.20;;;;;;;;;;345582;28;1292;-81
2024/02/29 01:04:56;;;;;;;9.18;3.25;;;;;;;;;;346866;28;1293;-86
2024/02/29 01:05:07;;;;;;;9.40;3.43;;;;;;;;;;345459;28;1523;-85
2024/02/29 01:05:17;;;;;;;10.13;3.40;;;;;;;;;;343774;28;1299;-82
2024/02/29 01:05:28;;;;;;;10.73;3.10;;;;;;;;;;343873;28;1173;-85
2024/02/29 01:05:39;;;;;;;8.75;3.08;;;;;;;;;;345617;28;803;-82
2024/02/29 01:05:49;;;;;;;8.25;3.00;;;;;;;;;;344325;28;836;-81
2024/02/29 01:06:00;;;;;;;6.23;2.87;;;;;;;;;;345609;28;1506;-81
2024/02/29 01:06:11;;;;;;;8.43;3.10;;;;;;;;;;342675;28;1237;-84
2024/02/29 01:06:21;;;;;;;8.57;3.10;;;;;;;;;;342894;28;871;-82